Terminal Aerodrome Forecast
Issued by NWS Anchorage, AK

Home | Current Version | Previous Version | Text Only | Print | Product List | Glossary On
Versions: 1 2 3 4 5 6 7 8 9 10 11 12 13 14 15
000
FTAK31 PANC 250530
TAFANC
TAF
PANC 250530Z 2506/2612 36005KT P6SM VCSH SCT050 BKN070
     FM251200 35005KT P6SM SCT060 BKN080
     FM251500 VRB03KT P6SM VCFG SCT005 BKN080
     FM252100 VRB03KT P6SM BKN080
     FM260600 VRB03KT P6SM VCSH BKN060=

USA.gov is the U.S. government's official web portal to all federal, state and local government web resources and services.